Time;durP1;ratioP1;P1;durP2;ratioP2;P2;SDS_P1;SDS_P2;PMS_P1;PMS_P2;Temp;Humidity;BMP_temperature;BMP_pressure;BME280_temperature;BME280_humidity;BME280_pressure;Samples;Min_cycle;Max_cycle;Signal;HPM_P1;HPM_P2
2022/12/07 00:01:45;;;;;;;4.50;2.20;;;;;;;-2.96;51.37;100157.23;25397;1328;3026576;-66
2022/12/07 00:04:15;;;;;;;4.30;2.70;;;;;;;-2.99;51.59;100150.86;25379;1326;3025996;-63
2022/12/07 00:06:50;;;;;;;4.00;2.70;;;;;;;-3.00;51.91;100146.56;25388;1336;3028080;-65
2022/12/07 00:09:19;;;;;;;4.80;2.60;;;;;;;-2.96;51.95;100146.76;25360;1336;3025947;-63
2022/12/07 00:11:50;;;;;;;7.80;3.10;;;;;;;-2.94;51.89;100141.97;25380;1325;3026067;-63
2022/12/07 00:14:19;;;;;;;4.70;2.70;;;;;;;-2.98;52.41;100142.46;25396;1326;3027782;-64
2022/12/07 00:16:50;;;;;;;4.50;2.70;;;;;;;-2.91;52.20;100135.29;25377;1333;3026460;-64
2022/12/07 00:19:19;;;;;;;6.40;3.10;;;;;;;-2.89;52.56;100128.79;25388;1339;3027402;-68
2022/12/07 00:21:49;;;;;;;5.40;2.50;;;;;;;-2.92;52.76;100121.06;25396;1336;3026340;-64
2022/12/07 00:24:18;;;;;;;9.90;2.20;;;;;;;-2.90;52.83;100117.30;25388;1326;3026579;-67
2022/12/07 00:26:47;;;;;;;5.40;2.30;;;;;;;-2.98;52.70;100121.73;25389;1339;3026154;-62
2022/12/07 00:29:20;;;;;;;5.30;2.50;;;;;;;-2.91;52.78;100125.70;25388;1336;3048410;-69
2022/12/07 00:31:49;;;;;;;5.00;2.10;;;;;;;-2.95;52.76;100131.67;25379;1326;3025848;-67
2022/12/07 00:34:20;;;;;;;5.20;2.10;;;;;;;-2.87;52.74;100136.86;25394;1336;3026338;-65
2022/12/07 00:36:49;;;;;;;4.40;2.10;;;;;;;-2.91;52.89;100140.79;25397;1327;3026288;-62
2022/12/07 00:39:19;;;;;;;7.00;2.30;;;;;;;-2.86;52.53;100137.89;25393;1326;3025066;-64
2022/12/07 00:41:48;;;;;;;5.40;2.10;;;;;;;-2.90;52.90;100128.63;25402;1327;3027115;-67
2022/12/07 00:44:18;;;;;;;5.00;2.40;;;;;;;-3.00;52.98;100127.36;25392;1326;3026425;-66
2022/12/07 00:46:47;;;;;;;7.40;2.70;;;;;;;-2.95;53.07;100125.86;25397;1332;3026314;-68
2022/12/07 00:49:17;;;;;;;7.40;2.30;;;;;;;-3.01;53.05;100128.57;25390;1334;3026425;-69
2022/12/07 00:51:48;;;;;;;5.30;2.30;;;;;;;-2.96;53.23;100125.49;25381;1326;3026876;-66
2022/12/07 00:54:17;;;;;;;5.80;2.20;;;;;;;-3.02;53.34;100128.05;25399;1328;3026600;-70
2022/12/07 00:56:47;;;;;;;4.60;2.10;;;;;;;-3.02;53.62;100118.79;25401;1327;3025766;-64
2022/12/07 00:59:16;;;;;;;6.20;2.00;;;;;;;-3.12;54.27;100114.79;25403;1336;3026680;-67
2022/12/07 01:01:45;;;;;;;3.40;1.90;;;;;;;-3.11;54.37;100111.20;25386;1333;3026845;-66
2022/12/07 01:04:15;;;;;;;6.10;2.00;;;;;;;-3.03;54.08;100107.80;25377;1339;3026024;-63
2022/12/07 01:06:44;;;;;;;4.40;2.00;;;;;;;-3.00;54.43;100103.35;25410;1335;3026177;-66
2022/12/07 01:09:13;;;;;;;5.20;2.50;;;;;;;-3.05;54.75;100103.68;25386;1327;3051706;-64
2022/12/07 01:11:42;;;;;;;4.70;2.30;;;;;;;-2.98;54.38;100094.98;25364;1326;3026025;-69
2022/12/07 01:14:12;;;;;;;3.20;2.10;;;;;;;-3.09;54.68;100095.45;25403;1336;3025700;-65
2022/12/07 01:16:42;;;;;;;3.50;1.60;;;;;;;-3.01;54.74;100087.94;25409;1333;3025749;-65
2022/12/07 01:19:11;;;;;;;4.90;1.80;;;;;;;-3.00;54.84;100078.34;25379;1335;3026412;-65
2022/12/07 01:21:41;;;;;;;3.90;1.90;;;;;;;-2.95;54.92;100077.50;25388;1327;3027092;-63
2022/12/07 01:24:10;;;;;;;5.40;2.40;;;;;;;-3.01;55.14;100085.54;25393;1326;3026644;-65
2022/12/07 01:26:40;;;;;;;5.10;1.60;;;;;;;-3.02;54.88;100085.20;25391;1333;3026624;-63
2022/12/07 01:29:10;;;;;;;6.80;2.00;;;;;;;-3.04;54.92;100078.50;25395;1339;3024806;-63
2022/12/07 01:31:39;;;;;;;3.60;1.80;;;;;;;-3.17;55.55;100087.00;25390;1326;3026036;-65
2022/12/07 01:34:09;;;;;;;5.90;1.80;;;;;;;-3.15;55.52;100096.42;25375;1328;3026413;-66
2022/12/07 01:36:38;;;;;;;4.50;1.60;;;;;;;-2.96;55.04;100095.33;25375;1341;3027034;-63
2022/12/07 01:39:09;;;;;;;4.70;2.10;;;;;;;-2.90;55.07;100075.64;25384;1331;3026271;-65
2022/12/07 01:41:40;;;;;;;4.10;2.30;;;;;;;-2.84;55.12;100074.13;25366;1338;3026895;-66
2022/12/07 01:44:10;;;;;;;3.90;1.80;;;;;;;-2.87;55.40;100077.54;25380;1335;3027062;-62
2022/12/07 01:46:41;;;;;;;4.40;1.80;;;;;;;-2.98;55.46;100089.14;25409;1335;3026810;-62
2022/12/07 01:49:21;;;;;;;3.50;1.70;;;;;;;-2.98;55.24;100091.02;25398;1333;3025858;-63
2022/12/07 01:51:52;;;;;;;4.00;2.00;;;;;;;-2.91;55.28;100078.38;25356;1328;3051753;-63
2022/12/07 01:54:21;;;;;;;3.80;2.00;;;;;;;-3.02;55.49;100078.33;25367;1332;3026124;-66
2022/12/07 01:56:52;;;;;;;3.90;2.00;;;;;;;-3.07;55.65;100082.60;25359;1337;3026544;-64
2022/12/07 01:59:24;;;;;;;4.10;2.00;;;;;;;-2.96;55.37;100084.70;25407;1328;3026311;-64
2022/12/07 02:01:54;;;;;;;3.90;1.80;;;;;;;-2.99;55.55;100079.89;25353;1339;3026147;-65
2022/12/07 02:04:23;;;;;;;3.40;1.80;;;;;;;-3.02;55.31;100080.56;25334;1338;3026184;-65
2022/12/07 02:06:53;;;;;;;6.00;1.80;;;;;;;-2.95;55.21;100078.88;25365;1333;3025915;-64
2022/12/07 02:18:01;;;;;;;4.70;2.20;;;;;;;-3.23;55.80;100080.80;30823;1337;3013574;-70
2022/12/07 02:20:37;;;;;;;4.90;2.20;;;;;;;-3.39;55.96;100072.84;24456;1334;3069235;-64
2022/12/07 02:23:23;;;;;;;3.20;1.80;;;;;;;-3.32;56.25;100074.75;24454;1337;3050837;-71
2022/12/07 02:26:03;;;;;;;4.70;2.10;;;;;;;-3.34;56.39;100069.79;24450;1339;3056780;-69
2022/12/07 02:28:37;;;;;;;3.50;1.70;;;;;;;-3.42;56.48;100066.47;24479;1337;3052422;-69
2022/12/07 02:31:11;;;;;;;4.80;2.20;;;;;;;-3.39;56.51;100067.00;23787;1336;4426470;-69
2022/12/07 02:33:49;;;;;;;6.00;1.90;;;;;;;-3.31;56.31;100065.84;24475;1335;3055845;-73
2022/12/07 02:36:30;;;;;;;3.50;1.80;;;;;;;-3.26;56.59;100068.28;24572;1333;3052040;-70
2022/12/07 02:39:22;;;;;;;5.10;2.30;;;;;;;-3.24;56.27;100070.00;24501;1332;3053691;-74
2022/12/07 02:41:56;;;;;;;7.70;2.50;;;;;;;-3.35;56.65;100072.00;24477;1329;3049283;-68
2022/12/07 02:44:26;;;;;;;3.70;1.90;;;;;;;-3.26;56.35;100080.61;24429;1333;3052895;-65
2022/12/07 02:46:58;;;;;;;5.00;2.30;;;;;;;-3.16;56.10;100077.08;24480;1332;3026248;-68
2022/12/07 02:49:28;;;;;;;4.80;1.90;;;;;;;-3.20;56.05;100080.81;24529;1325;3068793;-69
2022/12/07 02:51:57;;;;;;;3.90;1.50;;;;;;;-3.28;56.00;100077.52;24466;1329;3026687;-71
2022/12/07 02:54:26;;;;;;;4.10;2.20;;;;;;;-3.35;55.84;100071.65;24506;1333;3048057;-73
2022/12/07 02:57:01;;;;;;;3.00;1.50;;;;;;;-3.27;55.62;100060.21;24444;1333;3028791;-69
2022/12/07 02:59:59;;;;;;;4.40;1.90;;;;;;;-3.31;55.83;100060.88;24542;1332;3053077;-70
2022/12/07 03:02:52;;;;;;;3.30;1.50;;;;;;;-3.24;55.62;100054.41;24540;1336;3049630;-72
2022/12/07 03:05:34;;;;;;;6.70;2.20;;;;;;;-3.29;56.09;100058.83;24575;1332;3070445;-67
2022/12/07 03:08:19;;;;;;;5.00;2.30;;;;;;;-3.36;56.24;100051.44;24415;1325;3050242;-68
2022/12/07 03:11:19;;;;;;;4.00;2.10;;;;;;;-3.36;56.55;100051.95;24514;1324;3056708;-69
2022/12/07 03:14:00;;;;;;;5.00;2.50;;;;;;;-3.40;56.50;100055.00;24555;1325;3052762;-70
2022/12/07 03:16:37;;;;;;;6.50;3.20;;;;;;;-3.31;56.29;100059.17;24516;1333;3052967;-68
2022/12/07 03:19:16;;;;;;;5.60;2.80;;;;;;;-3.36;56.72;100052.98;24558;1334;3049782;-63
2022/12/07 03:21:57;;;;;;;11.30;2.80;;;;;;;-3.31;56.63;100041.86;24595;1327;3052829;-72
2022/12/07 03:24:29;;;;;;;4.10;2.10;;;;;;;-3.30;56.63;100040.50;24519;1332;3048770;-70
2022/12/07 03:27:06;;;;;;;6.10;2.40;;;;;;;-3.27;56.90;100043.08;24468;1332;3026023;-71
2022/12/07 03:29:38;;;;;;;7.40;3.00;;;;;;;-3.22;56.61;100040.36;24468;1330;3050236;-69
2022/12/07 03:32:31;;;;;;;9.90;3.50;;;;;;;-3.30;57.26;100030.38;24493;1335;3028005;-67
2022/12/07 03:35:07;;;;;;;10.20;3.10;;;;;;;-3.28;56.72;100026.11;24547;1330;3051995;-71
2022/12/07 03:37:40;;;;;;;11.40;3.30;;;;;;;-3.38;56.97;100022.81;24558;1325;3053637;-69
2022/12/07 03:40:31;;;;;;;9.10;2.90;;;;;;;-3.37;57.10;100015.96;24622;1334;3025245;-72
2022/12/07 03:43:01;;;;;;;11.60;2.50;;;;;;;-3.49;57.02;100014.52;24667;1331;3052418;-69
2022/12/07 03:45:41;;;;;;;11.10;3.30;;;;;;;-3.46;57.30;100016.77;24612;1326;3026024;-72
2022/12/07 03:48:37;;;;;;;13.20;2.70;;;;;;;-3.45;57.64;100022.09;24559;1330;3069590;-68
2022/12/07 03:51:13;;;;;;;3.80;1.80;;;;;;;-3.43;57.14;100020.39;24589;1334;3050006;-67
2022/12/07 03:53:49;;;;;;;8.30;2.80;;;;;;;-3.41;57.00;100022.45;24515;1334;3057088;-72
2022/12/07 03:56:19;;;;;;;6.40;2.80;;;;;;;-3.41;57.25;100024.00;24576;1329;3052819;-69
2022/12/07 03:58:48;;;;;;;5.60;2.10;;;;;;;-3.54;57.04;100022.21;24617;1321;3026239;-70
2022/12/07 04:01:18;;;;;;;11.20;3.60;;;;;;;-3.49;57.22;100016.76;24453;1330;3028483;-72
2022/12/07 04:03:46;;;;;;;11.60;3.10;;;;;;;-3.68;57.65;100018.53;24564;1330;3051557;-72
2022/12/07 04:06:15;;;;;;;5.60;2.60;;;;;;;-3.65;57.76;100013.92;24511;1334;3026505;-73
2022/12/07 04:08:45;;;;;;;6.40;2.60;;;;;;;-3.66;57.37;100012.55;24616;1330;3056667;-71
2022/12/07 04:11:14;;;;;;;8.00;3.10;;;;;;;-3.66;57.17;100019.06;24626;1334;3026584;-70
2022/12/07 04:16:58;;;;;;;7.70;2.70;;;;;;;-3.84;58.06;100011.42;24442;1341;3057035;-71
2022/12/07 04:19:29;;;;;;;10.10;3.40;;;;;;;-3.87;58.21;100006.43;24418;1321;3053696;-66
2022/12/07 04:21:59;;;;;;;12.90;3.60;;;;;;;-3.84;57.61;100001.31;24413;1332;3026134;-70
2022/12/07 04:24:28;;;;;;;8.50;2.60;;;;;;;-3.86;57.93;100002.84;24470;1339;3028943;-68
2022/12/07 04:26:57;;;;;;;10.10;3.10;;;;;;;-3.88;57.64;99997.02;24551;1337;3024892;-71
2022/12/07 04:29:26;;;;;;;7.80;3.50;;;;;;;-3.96;58.11;100002.77;24483;1327;3053794;-64
2022/12/07 04:31:55;;;;;;;16.10;4.00;;;;;;;-3.84;57.45;100012.77;24496;1330;3028263;-69
2022/12/07 04:34:24;;;;;;;12.60;3.60;;;;;;;-3.92;58.16;100022.65;24521;1329;3052032;-68
2022/12/07 04:36:53;;;;;;;7.80;2.70;;;;;;;-3.98;58.23;100018.66;24543;1329;3027942;-70
2022/12/07 04:39:24;;;;;;;9.70;3.00;;;;;;;-3.92;57.63;100016.67;24481;1333;3056123;-63
2022/12/07 04:41:53;;;;;;;12.70;3.30;;;;;;;-3.89;57.57;100017.02;24569;1329;3026805;-70
2022/12/07 04:44:22;;;;;;;7.70;3.50;;;;;;;-3.87;57.75;100024.23;24559;1339;3025467;-70
2022/12/07 04:46:51;;;;;;;9.80;3.30;;;;;;;-3.77;57.57;100030.12;24488;1328;3054523;-67
2022/12/07 04:49:21;;;;;;;11.90;3.30;;;;;;;-3.73;57.48;100026.89;24539;1331;3028717;-65
2022/12/07 04:51:50;;;;;;;5.80;2.70;;;;;;;-3.87;57.50;100025.93;24511;1336;3049371;-64
2022/12/07 04:54:19;;;;;;;6.20;2.70;;;;;;;-3.80;57.42;100030.62;24523;1325;3028236;-71
2022/12/07 04:56:48;;;;;;;9.10;3.30;;;;;;;-3.85;57.56;100035.88;24499;1331;3068860;-67
2022/12/07 04:59:17;;;;;;;9.70;3.60;;;;;;;-3.92;57.98;100028.82;24536;1329;3028466;-64
2022/12/07 05:01:46;;;;;;;9.20;3.10;;;;;;;-3.94;57.63;100021.45;24495;1331;3049202;-70
2022/12/07 05:04:15;;;;;;;13.10;2.40;;;;;;;-3.95;57.68;100018.36;24503;1329;3028234;-68
2022/12/07 05:06:45;;;;;;;9.70;3.50;;;;;;;-3.99;57.52;100016.63;24524;1336;3052897;-71
2022/12/07 05:09:14;;;;;;;7.90;2.80;;;;;;;-3.95;57.35;100013.05;24494;1333;3026768;-70
2022/12/07 05:11:43;;;;;;;7.60;3.30;;;;;;;-3.82;57.25;100015.20;24472;1331;3026271;-73
2022/12/07 05:14:19;;;;;;;6.60;3.00;;;;;;;-3.86;57.54;100023.90;24482;1337;3052437;-65
2022/12/07 05:16:49;;;;;;;7.10;3.30;;;;;;;-3.83;57.37;100022.72;24523;1333;3048043;-69
2022/12/07 05:19:19;;;;;;;9.10;4.20;;;;;;;-3.95;58.09;100019.04;24515;1332;3027214;-70
2022/12/07 05:21:48;;;;;;;9.10;3.90;;;;;;;-3.96;57.37;100010.99;24512;1324;3028186;-68
2022/12/07 05:24:17;;;;;;;8.40;3.20;;;;;;;-3.91;57.33;100011.02;24517;1333;3048259;-67
2022/12/07 05:26:48;;;;;;;7.60;3.00;;;;;;;-3.91;57.52;100015.30;24523;1322;3027531;-69
2022/12/07 05:29:17;;;;;;;9.20;3.40;;;;;;;-3.94;57.60;100017.67;24561;1324;3028087;-73
2022/12/07 05:31:46;;;;;;;9.00;3.40;;;;;;;-3.88;57.00;100007.11;24569;1320;3048240;-72
2022/12/07 05:34:15;;;;;;;9.90;3.20;;;;;;;-3.87;57.58;100012.25;24510;1336;3025751;-69
2022/12/07 05:36:44;;;;;;;6.50;3.00;;;;;;;-3.99;57.85;100012.50;24536;1333;3051925;-71
2022/12/07 05:39:15;;;;;;;9.70;3.20;;;;;;;-3.93;57.49;100011.52;24482;1329;3028985;-64
2022/12/07 05:44:32;;;;;;;9.40;3.70;;;;;;;-3.98;57.07;100009.95;24599;1336;3051407;-70
2022/12/07 05:47:01;;;;;;;9.10;4.00;;;;;;;-3.88;57.05;100012.76;24459;1324;3026162;-71
2022/12/07 05:49:30;;;;;;;7.60;3.90;;;;;;;-3.98;57.65;100017.14;24562;1324;3026064;-68
2022/12/07 05:51:59;;;;;;;7.10;3.10;;;;;;;-4.03;57.58;100031.30;24603;1336;3052313;-73
2022/12/07 05:54:31;;;;;;;6.50;3.20;;;;;;;-4.09;57.44;100027.31;24553;1329;3028756;-68
2022/12/07 05:57:00;;;;;;;6.20;2.70;;;;;;;-4.07;57.39;100026.14;24526;1330;3025884;-72
2022/12/07 05:59:29;;;;;;;7.00;2.90;;;;;;;-4.03;57.68;100036.09;24514;1321;3052598;-69
2022/12/07 06:02:03;;;;;;;6.40;3.40;;;;;;;-3.97;57.37;100032.20;24588;1331;3027898;-64
2022/12/07 06:04:34;;;;;;;6.20;2.80;;;;;;;-3.95;57.35;100035.98;24546;1334;3050891;-66
2022/12/07 06:07:04;;;;;;;6.50;2.70;;;;;;;-3.85;57.19;100051.97;24477;1331;3026111;-68
2022/12/07 06:09:34;;;;;;;8.10;3.10;;;;;;;-3.77;57.14;100053.58;24517;1333;3026234;-71
2022/12/07 06:15:16;;;;;;;8.30;3.60;;;;;;;-3.58;56.61;100037.27;24576;1344;3049653;-67
2022/12/07 06:17:49;;;;;;;7.80;3.20;;;;;;;-3.59;56.63;100033.65;24594;1331;3055280;-74
2022/12/07 06:20:18;;;;;;;9.70;3.30;;;;;;;-3.59;56.40;100034.01;24572;1334;3026075;-72
2022/12/07 06:22:47;;;;;;;12.20;4.40;;;;;;;-3.63;56.14;100040.48;24539;1333;3049678;-70
2022/12/07 06:25:15;;;;;;;8.60;4.30;;;;;;;-3.60;56.17;100038.11;24630;1323;3026279;-67
2022/12/07 06:27:44;;;;;;;7.20;3.40;;;;;;;-3.69;55.90;100036.00;24516;1333;3069121;-67
2022/12/07 06:30:13;;;;;;;7.60;3.80;;;;;;;-3.73;56.09;100039.05;24581;1331;3028989;-70
2022/12/07 06:32:42;;;;;;;6.90;3.20;;;;;;;-3.73;56.10;100036.48;24478;1330;3049362;-68
2022/12/07 06:35:11;;;;;;;11.50;4.30;;;;;;;-3.75;56.36;100037.50;24522;1328;3028840;-67
2022/12/07 06:37:40;;;;;;;8.00;3.70;;;;;;;-3.67;56.19;100039.78;24517;1331;3052427;-66
2022/12/07 06:40:10;;;;;;;7.60;3.90;;;;;;;-3.75;56.45;100034.76;24517;1326;3026110;-71
2022/12/07 06:42:39;;;;;;;9.60;4.20;;;;;;;-3.77;56.56;100029.45;24565;1339;3051625;-66
2022/12/07 06:45:08;;;;;;;13.80;4.70;;;;;;;-3.81;56.52;100037.11;24559;1330;3026584;-69
2022/12/07 06:47:39;;;;;;;8.80;3.70;;;;;;;-3.73;56.29;100028.27;24492;1331;3052401;-67
2022/12/07 06:50:09;;;;;;;9.70;3.70;;;;;;;-3.77;56.42;100027.38;24561;1322;3026895;-70
2022/12/07 06:52:38;;;;;;;7.50;3.60;;;;;;;-3.78;56.26;100037.81;24604;1324;3052604;-66
2022/12/07 06:55:07;;;;;;;8.50;3.80;;;;;;;-3.60;55.82;100045.64;24505;1337;3026121;-65
2022/12/07 06:57:36;;;;;;;10.70;3.90;;;;;;;-3.51;55.87;100049.98;24530;1337;3026131;-67
2022/12/07 07:00:06;;;;;;;7.60;3.60;;;;;;;-3.45;55.69;100044.19;24491;1322;3028757;-71
2022/12/07 07:02:35;;;;;;;9.50;4.60;;;;;;;-3.49;55.49;100050.33;24599;1340;3054083;-71
2022/12/07 07:05:04;;;;;;;9.30;3.90;;;;;;;-3.51;55.90;100048.94;24537;1336;3029372;-69
2022/12/07 07:07:33;;;;;;;7.70;3.80;;;;;;;-3.51;55.69;100053.05;24602;1323;3051195;-68
2022/12/07 07:10:04;;;;;;;5.50;3.40;;;;;;;-3.43;55.29;100048.49;24557;1323;3026314;-67
2022/12/07 07:12:33;;;;;;;8.20;4.00;;;;;;;-3.42;55.40;100047.29;24525;1335;3026808;-68
2022/12/07 07:15:02;;;;;;;8.30;3.80;;;;;;;-3.46;55.22;100043.49;24705;1319;3028819;-69
2022/12/07 07:17:31;;;;;;;8.50;4.60;;;;;;;-3.47;55.14;100048.80;24542;1337;3052428;-73
2022/12/07 07:20:00;;;;;;;6.90;3.80;;;;;;;-3.48;55.34;100043.83;24549;1330;3025722;-73
2022/12/07 07:22:29;;;;;;;10.30;3.90;;;;;;;-3.38;54.87;100047.31;24676;1330;3051773;-72
2022/12/07 07:24:58;;;;;;;7.80;3.60;;;;;;;-3.47;55.17;100050.01;24547;1325;3026350;-70
2022/12/07 07:27:27;;;;;;;7.30;3.90;;;;;;;-3.37;55.06;100047.66;24520;1329;3055666;-72
2022/12/07 07:29:56;;;;;;;6.20;3.00;;;;;;;-3.27;55.01;100038.96;24629;1320;3026008;-72
2022/12/07 07:32:27;;;;;;;8.70;4.10;;;;;;;-3.34;54.93;100041.52;24575;1328;3049593;-71
2022/12/07 07:34:56;;;;;;;7.80;3.40;;;;;;;-3.28;54.97;100039.64;24582;1331;3026273;-70
2022/12/07 07:37:25;;;;;;;7.60;3.90;;;;;;;-3.25;54.85;100049.95;24531;1328;3028717;-66
2022/12/07 07:40:20;;;;;;;7.50;3.70;;;;;;;-3.24;54.69;100049.61;24537;1323;3050375;-71
2022/12/07 07:42:49;;;;;;;7.50;3.10;;;;;;;-3.24;54.85;100049.61;24573;1336;3028909;-71
2022/12/07 07:45:19;;;;;;;6.30;2.90;;;;;;;-3.07;54.33;100039.05;24608;1322;3069106;-69
2022/12/07 07:47:48;;;;;;;8.10;3.70;;;;;;;-3.03;54.27;100041.64;24592;1330;3028187;-64
2022/12/07 07:50:18;;;;;;;7.30;4.10;;;;;;;-3.00;54.12;100037.88;24618;1335;3028172;-68
2022/12/07 07:52:47;;;;;;;8.20;4.00;;;;;;;-3.07;54.17;100033.07;24592;1323;3026414;-69
2022/12/07 07:55:16;;;;;;;10.10;4.50;;;;;;;-3.02;54.37;100025.53;24587;1329;3050761;-70
2022/12/07 07:57:45;;;;;;;11.30;4.20;;;;;;;-3.10;54.33;100023.98;24568;1323;3025964;-68
2022/12/07 08:00:15;;;;;;;9.70;4.00;;;;;;;-3.01;54.28;100025.88;24605;1328;3068107;-69
2022/12/07 08:02:44;;;;;;;8.10;3.60;;;;;;;-2.98;53.91;100020.06;24693;1329;3028207;-68
2022/12/07 08:05:13;;;;;;;7.60;4.00;;;;;;;-3.00;54.33;100025.71;24570;1337;3026566;-69
2022/12/07 08:07:43;;;;;;;7.80;3.40;;;;;;;-2.93;53.82;100023.84;24653;1331;3026379;-69
2022/12/07 08:10:12;;;;;;;6.50;3.30;;;;;;;-2.82;53.89;100020.80;24682;1330;3049026;-71
2022/12/07 08:13:26;;;;;;;9.70;4.00;;;;;;;-2.75;53.68;100018.41;24588;1329;3025819;-69
2022/12/07 08:15:37;;;;;;;6.70;3.50;;;;;;;-2.87;53.93;100016.84;24514;1329;3051923;-72
2022/12/07 08:18:06;;;;;;;11.30;4.20;;;;;;;-2.88;53.68;100015.13;24613;1330;3026558;-73
2022/12/07 08:20:35;;;;;;;10.50;4.00;;;;;;;-2.64;53.66;100012.95;24633;1330;3026324;-71
2022/12/07 08:23:04;;;;;;;10.30;5.00;;;;;;;-2.67;53.55;100008.48;24606;1331;3050802;-68
2022/12/07 08:25:35;;;;;;;9.20;4.20;;;;;;;-2.67;53.32;100004.72;24544;1337;3027159;-67
2022/12/07 08:28:04;;;;;;;10.30;4.20;;;;;;;-2.68;53.26;99996.31;24572;1322;3026198;-65
2022/12/07 08:30:33;;;;;;;8.20;4.10;;;;;;;-2.70;53.46;99996.48;24603;1328;3051637;-68
2022/12/07 08:33:02;;;;;;;12.90;3.70;;;;;;;-2.70;53.38;100002.47;24612;1321;3028032;-68
2022/12/07 08:35:33;;;;;;;8.80;4.40;;;;;;;-2.66;53.43;100007.46;24553;1314;3056404;-67
2022/12/07 08:38:02;;;;;;;10.60;3.90;;;;;;;-2.64;53.35;100001.80;24571;1320;3029372;-70
2022/12/07 08:40:32;;;;;;;14.10;3.70;;;;;;;-2.56;53.16;100000.97;24576;1328;3028874;-70
2022/12/07 08:43:01;;;;;;;9.90;4.60;;;;;;;-2.46;52.76;99991.20;24606;1329;3025788;-70
2022/12/07 08:45:35;;;;;;;12.40;4.70;;;;;;;-2.41;52.55;99984.84;24616;1328;3050564;-67
2022/12/07 08:48:06;;;;;;;;;;;;;;;-2.24;52.21;99984.00;24650;1328;3053169;-70
2022/12/07 08:50:36;;;;;;;10.50;4.00;;;;;;;-2.20;52.14;99979.18;24519;1328;3026121;-70
2022/12/07 08:53:30;;;;;;;8.50;3.90;;;;;;;-2.31;52.27;99981.77;24569;1320;3053434;-72
2022/12/07 08:55:59;;;;;;;10.10;3.50;;;;;;;-2.23;52.40;99981.59;24555;1329;3026174;-67
2022/12/07 08:58:28;;;;;;;9.60;4.00;;;;;;;-2.22;52.31;99978.51;24506;1331;3051478;-67
2022/12/07 09:00:57;;;;;;;8.20;4.10;;;;;;;-2.19;52.01;99973.70;24490;1321;3025717;-69
2022/12/07 09:03:26;;;;;;;7.30;3.80;;;;;;;-2.13;52.19;99967.52;24529;1327;3053029;-65
2022/12/07 09:05:55;;;;;;;13.50;4.80;;;;;;;-2.18;51.81;99965.80;24657;1328;3026244;-68
2022/12/07 09:08:27;;;;;;;11.30;4.70;;;;;;;-2.16;52.34;99964.08;24789;1328;3051536;-69
2022/12/07 10:34:20;;;;;;;7.80;4.20;;;;;;;-2.52;55.44;99895.30;30784;1337;3018764;-71
2022/12/07 10:36:49;;;;;;;7.30;3.90;;;;;;;-2.40;56.36;99886.20;24511;1333;3068337;-69
2022/12/07 10:39:22;;;;;;;9.70;4.80;;;;;;;-2.41;56.50;99894.43;24453;1331;3026349;-67
2022/12/07 10:41:59;;;;;;;16.20;5.20;;;;;;;-2.31;56.49;99897.67;24471;1330;3050687;-68
2022/12/07 10:44:32;;;;;;;8.50;4.40;;;;;;;-2.26;56.65;99900.59;24496;1329;3068252;-67
2022/12/07 10:47:14;;;;;;;9.30;4.60;;;;;;;-2.35;56.51;99903.86;23813;1333;4380728;-69
2022/12/07 10:50:06;;;;;;;10.50;4.60;;;;;;;-2.43;56.55;99899.23;24564;1344;3049548;-69
2022/12/07 10:52:45;;;;;;;7.40;3.90;;;;;;;-2.38;56.78;99888.77;24459;1339;3069238;-70
2022/12/07 10:55:39;;;;;;;11.50;4.90;;;;;;;-2.36;56.50;99889.10;24526;1329;3049301;-68
2022/12/07 10:58:08;;;;;;;9.60;4.00;;;;;;;-2.39;56.75;99892.20;24473;1337;3057571;-66
2022/12/07 11:00:44;;;;;;;10.10;4.00;;;;;;;-2.31;56.47;99888.77;24597;1337;3026556;-69
2022/12/07 11:03:13;;;;;;;9.00;4.20;;;;;;;-2.26;56.30;99884.97;24531;1323;3050626;-69
2022/12/07 11:05:48;;;;;;;9.90;4.10;;;;;;;-2.24;56.42;99884.12;24534;1337;3027350;-72
2022/12/07 11:08:38;;;;;;;9.50;4.30;;;;;;;-2.25;56.50;99882.57;24620;1334;3069332;-69
2022/12/07 11:11:12;;;;;;;9.00;4.60;;;;;;;-2.20;56.68;99875.35;24592;1333;3050158;-70
2022/12/07 11:14:18;;;;;;;15.50;4.70;;;;;;;-2.20;56.94;99864.55;24551;1334;3056240;-70
2022/12/07 11:17:17;;;;;;;8.40;4.40;;;;;;;-2.32;57.82;99864.73;24578;1318;3052069;-71
2022/12/07 11:19:55;;;;;;;10.80;4.40;;;;;;;-2.36;58.34;99856.84;24618;1340;3052503;-71
2022/12/07 11:22:30;;;;;;;10.00;4.20;;;;;;;-2.31;58.63;99856.67;24596;1316;3049940;-72
2022/12/07 11:25:37;;;;;;;8.90;4.80;;;;;;;-2.22;58.91;99854.08;24596;1334;3053002;-68
2022/12/07 11:28:25;;;;;;;11.20;4.90;;;;;;;-2.18;59.44;99844.28;24524;1320;3048480;-67
2022/12/07 11:31:01;;;;;;;12.90;5.50;;;;;;;-2.36;60.45;99837.46;24557;1327;3069376;-70
2022/12/07 11:34:10;;;;;;;11.90;4.90;;;;;;;-2.39;60.71;99836.95;24549;1330;3049976;-68
2022/12/07 11:36:44;;;;;;;11.00;5.40;;;;;;;-2.37;60.37;99833.34;24583;1334;3056414;-66
2022/12/07 11:39:34;;;;;;;14.50;5.60;;;;;;;-2.48;60.62;99828.05;24613;1334;3051422;-67
2022/12/07 11:42:12;;;;;;;11.60;4.30;;;;;;;-2.39;60.42;99836.44;24475;1334;3053153;-72
2022/12/07 11:45:24;;;;;;;9.50;4.60;;;;;;;-2.36;60.44;99831.27;24581;1330;3051466;-73
2022/12/07 11:48:16;;;;;;;9.00;4.80;;;;;;;-2.42;60.44;99827.35;24574;1334;3051755;-67
2022/12/07 11:50:48;;;;;;;8.20;4.80;;;;;;;-2.38;60.71;99828.55;24548;1330;3048624;-69
2022/12/07 11:53:24;;;;;;;12.80;4.80;;;;;;;-2.46;60.94;99821.86;24597;1327;3026273;-71
2022/12/07 11:56:05;;;;;;;9.80;4.90;;;;;;;-2.53;61.27;99816.21;24615;1341;3049265;-72
2022/12/07 11:58:40;;;;;;;14.40;5.60;;;;;;;-2.69;61.81;99818.64;24517;1334;3056827;-71
2022/12/07 12:01:27;;;;;;;9.00;4.80;;;;;;;-2.66;62.14;99818.98;24618;1326;3026455;-72
2022/12/07 12:04:09;;;;;;;11.60;5.40;;;;;;;-2.63;62.65;99822.40;24572;1334;3053641;-73
2022/12/07 12:06:43;;;;;;;10.40;5.30;;;;;;;-2.73;63.10;99817.44;24619;1333;3050928;-72
2022/12/07 12:09:31;;;;;;;8.50;4.60;;;;;;;-2.69;63.14;99819.16;24590;1336;3052948;-72
2022/12/07 12:12:11;;;;;;;11.30;5.30;;;;;;;-2.62;62.89;99822.92;24606;1338;3049202;-71
2022/12/07 12:15:02;;;;;;;11.50;5.20;;;;;;;-2.69;62.81;99820.02;24582;1333;3068589;-72
2022/12/07 12:18:00;;;;;;;12.40;5.40;;;;;;;-2.65;62.46;99820.00;24524;1334;3049831;-70
2022/12/07 12:20:57;;;;;;;8.80;4.90;;;;;;;-2.57;62.71;99814.16;24583;1327;3055614;-73
2022/12/07 12:23:43;;;;;;;9.60;5.70;;;;;;;-2.57;62.39;99821.37;24582;1326;3025818;-71
2022/12/07 12:26:19;;;;;;;11.00;5.10;;;;;;;-2.47;62.10;99827.19;24484;1343;3053467;-72
2022/12/07 12:28:48;;;;;;;13.30;5.20;;;;;;;-2.54;62.18;99826.52;24514;1340;3050219;-72
2022/12/07 12:31:20;;;;;;;11.80;4.30;;;;;;;-2.59;62.25;99830.11;24533;1341;3026046;-73
2022/12/07 12:33:50;;;;;;;9.80;4.30;;;;;;;-2.47;61.97;99832.85;24560;1326;3025828;-71
2022/12/07 12:36:24;;;;;;;8.70;4.20;;;;;;;-2.41;62.03;99835.07;24513;1325;3026850;-72
2022/12/07 12:39:18;;;;;;;10.80;4.40;;;;;;;-2.33;61.62;99831.61;24517;1336;3049789;-72
2022/12/07 12:44:19;;;;;;;11.80;4.90;;;;;;;-2.48;62.33;99825.98;24513;1340;3026605;-73
2022/12/07 12:46:52;;;;;;;11.00;4.40;;;;;;;-2.55;62.35;99823.95;24517;1334;3049823;-73
2022/12/07 12:49:21;;;;;;;12.50;4.60;;;;;;;-2.60;62.48;99821.36;24561;1317;3056814;-71
2022/12/07 12:52:15;;;;;;;10.50;4.80;;;;;;;-2.62;62.33;99814.86;24593;1327;3051903;-72
2022/12/07 12:55:07;;;;;;;11.30;4.20;;;;;;;-2.66;62.64;99820.88;24526;1334;3026556;-71
2022/12/07 12:57:36;;;;;;;10.00;4.10;;;;;;;-2.60;62.27;99829.61;24528;1333;3050919;-71
2022/12/07 13:00:19;;;;;;;11.60;5.00;;;;;;;-2.57;62.42;99834.58;24562;1341;3028055;-72
2022/12/07 13:02:58;;;;;;;7.40;3.80;;;;;;;-2.63;62.83;99843.34;24509;1334;3048618;-72
2022/12/07 13:06:35;;;;;;;8.30;3.80;;;;;;;-2.53;62.60;99843.48;24510;1329;3069082;-71
2022/12/07 13:09:26;;;;;;;8.20;4.20;;;;;;;-2.53;62.67;99849.84;24451;1332;3049777;-69
2022/12/07 13:11:57;;;;;;;8.90;3.70;;;;;;;-2.48;63.01;99851.38;24469;1339;3056833;-71
2022/12/07 13:14:41;;;;;;;12.80;5.00;;;;;;;-2.42;62.72;99857.20;24475;1328;3028319;-70
2022/12/07 13:17:30;;;;;;;10.90;4.50;;;;;;;-2.32;62.37;99860.45;24510;1334;3053512;-71
2022/12/07 13:20:01;;;;;;;9.20;3.90;;;;;;;-2.26;62.30;99864.89;24557;1334;3051795;-71
2022/12/07 13:22:30;;;;;;;16.10;4.90;;;;;;;-2.34;62.28;99863.20;24561;1336;3025792;-70
2022/12/07 13:25:12;;;;;;;9.50;4.50;;;;;;;-2.39;62.58;99864.22;24594;1326;3028528;-70